Time;durP1;ratioP1;P1;durP2;ratioP2;P2;SDS_P1;SDS_P2;PMS_P1;PMS_P2;Temp;Humidity;BMP_temperature;BMP_pressure;BME280_temperature;BME280_humidity;BME280_pressure;Samples;Min_cycle;Max_cycle;Signal;HPM_P1;HPM_P2
2023/06/28 00:02:39;;;;;;;3.60;1.90;;;19.40;74.60;;;;;;6206072;28;20421;-79
2023/06/28 00:05:40;;;;;;;3.30;1.95;;;19.50;74.80;;;;;;6206689;28;20549;-80
2023/06/28 00:08:42;;;;;;;4.03;1.58;;;19.50;75.10;;;;;;6204824;28;20057;-80
2023/06/28 00:11:45;;;;;;;4.13;2.10;;;19.50;75.40;;;;;;6208268;28;20050;-79
2023/06/28 00:14:48;;;;;;;2.63;1.80;;;19.50;75.50;;;;;;6207733;28;20046;-78
2023/06/28 00:17:50;;;;;;;8.25;2.60;;;19.50;75.60;;;;;;6203376;28;20050;-79
2023/06/28 00:20:51;;;;;;;7.10;2.38;;;19.50;76.10;;;;;;6204635;28;20050;-80
2023/06/28 00:23:53;;;;;;;4.22;1.90;;;19.40;76.60;;;;;;6204669;28;20046;-82
2023/06/28 00:26:55;;;;;;;4.38;2.13;;;19.40;76.80;;;;;;6204002;28;20050;-82
2023/06/28 00:29:58;;;;;;;6.32;2.40;;;19.30;77.00;;;;;;6203933;28;20057;-79
2023/06/28 00:33:00;;;;;;;4.75;1.80;;;19.40;76.90;;;;;;6204843;28;20102;-80
2023/06/28 00:36:01;;;;;;;3.75;2.22;;;19.30;77.00;;;;;;6205482;28;20050;-79
2023/06/28 00:39:03;;;;;;;6.95;2.28;;;19.30;77.30;;;;;;6204667;28;20042;-82
2023/06/28 00:42:06;;;;;;;5.68;2.78;;;19.20;78.00;;;;;;6205881;28;20069;-79
2023/06/28 00:45:12;;;;;;;3.85;2.75;;;19.10;78.30;;;;;;6227145;28;20053;-80
2023/06/28 00:48:14;;;;;;;5.35;2.88;;;19.10;78.90;;;;;;6228893;28;20061;-80
2023/06/28 00:51:16;;;;;;;3.58;2.38;;;19.10;78.80;;;;;;6230307;28;20133;-79
2023/06/28 00:54:19;;;;;;;3.20;2.00;;;19.10;79.00;;;;;;6230112;28;20161;-79
2023/06/28 00:57:21;;;;;;;2.80;2.17;;;19.00;79.30;;;;;;6226726;28;20043;-79
2023/06/28 01:00:26;;;;;;;4.22;1.67;;;19.00;79.50;;;;;;6231889;28;20056;-80
2023/06/28 01:03:28;;;;;;;5.43;2.75;;;19.00;80.00;;;;;;6230277;28;20053;-81
2023/06/28 01:06:31;;;;;;;4.68;2.40;;;19.00;80.30;;;;;;6227873;28;20054;-81
2023/06/28 01:09:34;;;;;;;7.25;2.63;;;19.00;80.50;;;;;;6226042;28;20057;-80
2023/06/28 01:12:37;;;;;;;2.97;1.98;;;19.00;80.80;;;;;;6224505;28;20053;-80
2023/06/28 01:15:40;;;;;;;3.38;2.80;;;19.00;81.10;;;;;;6229794;28;20076;-81
2023/06/28 01:18:42;;;;;;;6.85;3.08;;;19.00;81.40;;;;;;6231759;28;20088;-79
2023/06/28 01:21:49;;;;;;;3.85;2.38;;;18.90;81.50;;;;;;6231539;28;20123;-79
2023/06/28 01:24:52;;;;;;;4.10;2.30;;;18.80;82.00;;;;;;6229973;28;20057;-78
2023/06/28 01:27:54;;;;;;;4.22;2.38;;;18.90;82.50;;;;;;6216399;28;20062;-79
2023/06/28 01:30:57;;;;;;;6.55;3.30;;;18.80;82.70;;;;;;6203169;28;20139;-79
2023/06/28 01:33:58;;;;;;;2.88;2.00;;;18.90;83.30;;;;;;6203391;28;20050;-80
2023/06/28 01:37:03;;;;;;;5.90;3.17;;;18.90;84.60;;;;;;6209536;28;20053;-80
2023/06/28 01:40:09;;;;;;;5.43;2.95;;;18.90;84.60;;;;;;6205892;28;20065;-80
2023/06/28 01:43:11;;;;;;;3.08;2.85;;;18.80;85.50;;;;;;6208570;28;20101;-80
2023/06/28 01:46:13;;;;;;;3.95;3.20;;;18.90;86.30;;;;;;6205123;28;20057;-79
2023/06/28 01:49:16;;;;;;;3.65;2.67;;;18.80;87.00;;;;;;6203812;28;20166;-80
2023/06/28 01:52:18;;;;;;;5.43;2.47;;;18.70;87.70;;;;;;6204763;28;20054;-79
2023/06/28 01:55:23;;;;;;;8.00;2.85;;;18.60;88.40;;;;;;6205157;28;20047;-80
2023/06/28 01:58:25;;;;;;;4.63;2.70;;;18.60;89.30;;;;;;6205435;28;20086;-80
2023/06/28 02:01:28;;;;;;;5.40;3.58;;;18.50;90.00;;;;;;6204042;28;20055;-79
2023/06/28 02:04:29;;;;;;;29.45;3.42;;;18.50;90.20;;;;;;6202939;28;20039;-79
2023/06/28 02:07:31;;;;;;;5.13;2.15;;;18.50;90.40;;;;;;6202954;28;20080;-77
2023/06/28 02:10:35;;;;;;;3.20;2.58;;;18.50;90.60;;;;;;6204183;28;20428;-77
2023/06/28 02:13:36;;;;;;;4.95;3.00;;;18.50;90.80;;;;;;6204039;28;20049;-79
2023/06/28 02:16:38;;;;;;;5.43;2.65;;;18.50;90.90;;;;;;6206298;28;20061;-79
2023/06/28 02:19:40;;;;;;;4.30;2.88;;;18.50;91.00;;;;;;6203994;28;20051;-78
2023/06/28 02:22:42;;;;;;;6.35;2.83;;;18.50;91.10;;;;;;6204400;28;20047;-77
2023/06/28 02:25:45;;;;;;;7.80;3.15;;;18.40;91.30;;;;;;6203756;28;20549;-79
2023/06/28 02:28:46;;;;;;;4.05;2.28;;;18.40;91.50;;;;;;6206767;28;20054;-80
2023/06/28 02:31:49;;;;;;;3.53;2.75;;;18.40;91.70;;;;;;6206277;28;20214;-79
2023/06/28 02:34:50;;;;;;;4.47;2.63;;;18.40;91.90;;;;;;6205274;28;20057;-81
2023/06/28 02:37:52;;;;;;;11.50;3.72;;;18.40;92.00;;;;;;6208365;28;20353;-80
2023/06/28 02:40:55;;;;;;;4.13;2.67;;;18.40;92.30;;;;;;6223190;28;20057;-79
2023/06/28 02:43:56;;;;;;;5.70;3.40;;;18.30;92.40;;;;;;6234510;28;20053;-79
2023/06/28 02:46:58;;;;;;;3.90;2.35;;;18.20;92.60;;;;;;6234106;28;20049;-79
2023/06/28 02:50:04;;;;;;;4.43;3.00;;;18.30;92.90;;;;;;6232458;28;20046;-79
2023/06/28 02:53:05;;;;;;;8.23;2.83;;;18.20;93.10;;;;;;6219531;28;20432;-81
2023/06/28 02:56:12;;;;;;;3.72;2.45;;;18.20;93.40;;;;;;6207932;28;20069;-82
2023/06/28 02:59:14;;;;;;;8.70;2.83;;;18.10;93.70;;;;;;6203331;28;20089;-80
2023/06/28 03:02:16;;;;;;;5.75;3.28;;;18.10;94.00;;;;;;6205173;28;20058;-80
2023/06/28 03:05:18;;;;;;;5.13;3.00;;;18.10;94.40;;;;;;6208343;28;20047;-82
2023/06/28 03:08:19;;;;;;;3.58;2.83;;;18.10;94.70;;;;;;6206911;28;20061;-80
2023/06/28 03:11:22;;;;;;;4.03;3.47;;;18.10;95.10;;;;;;6207698;28;20046;-79
2023/06/28 03:14:24;;;;;;;3.95;2.95;;;18.10;95.40;;;;;;6204303;28;20051;-81
2023/06/28 03:17:26;;;;;;;3.45;2.85;;;18.00;95.60;;;;;;6205066;28;20066;-81
2023/06/28 03:20:27;;;;;;;3.20;2.90;;;18.10;95.80;;;;;;6208533;28;20057;-80
2023/06/28 03:23:29;;;;;;;4.85;3.03;;;18.10;96.20;;;;;;6208813;28;20070;-79
2023/06/28 03:26:32;;;;;;;4.63;2.78;;;18.00;96.20;;;;;;6206030;28;20058;-79
2023/06/28 03:29:34;;;;;;;3.30;2.63;;;18.10;96.30;;;;;;6207842;28;20061;-80
2023/06/28 03:32:35;;;;;;;3.35;3.05;;;18.10;96.50;;;;;;6206998;28;20054;-80
2023/06/28 03:35:37;;;;;;;4.45;2.60;;;18.10;96.50;;;;;;6205003;28;20046;-80
2023/06/28 03:38:39;;;;;;;5.63;3.97;;;18.00;96.70;;;;;;6204929;28;20508;-80
2023/06/28 03:41:42;;;;;;;11.38;4.97;;;18.00;96.90;;;;;;6204606;28;20050;-80
2023/06/28 03:44:43;;;;;;;12.32;3.17;;;18.00;97.10;;;;;;6204748;28;20053;-79
2023/06/28 03:47:45;;;;;;;4.10;3.47;;;18.00;97.20;;;;;;6202610;28;20049;-80
2023/06/28 03:50:47;;;;;;;7.47;3.00;;;18.00;97.20;;;;;;6204833;28;20086;-80
2023/06/28 03:53:49;;;;;;;5.32;3.35;;;18.00;97.20;;;;;;6201220;28;20073;-79
2023/06/28 03:56:52;;;;;;;3.35;2.90;;;17.90;97.30;;;;;;6199652;28;20050;-78
2023/06/28 03:59:54;;;;;;;4.13;3.03;;;17.90;97.60;;;;;;6198445;28;20046;-78
2023/06/28 04:02:55;;;;;;;3.88;2.33;;;17.90;97.70;;;;;;6198911;28;20047;-78
2023/06/28 04:05:57;;;;;;;3.58;2.95;;;17.90;97.80;;;;;;6198348;28;20046;-78
2023/06/28 04:08:59;;;;;;;4.28;2.85;;;17.90;97.90;;;;;;6199247;28;20047;-78
2023/06/28 04:12:02;;;;;;;3.97;2.90;;;17.90;98.00;;;;;;6197596;28;20058;-78
2023/06/28 04:15:06;;;;;;;5.50;3.40;;;17.90;98.20;;;;;;6198766;28;20050;-78
2023/06/28 04:18:07;;;;;;;5.13;3.13;;;18.00;98.30;;;;;;6199598;28;20046;-79
2023/06/28 04:21:09;;;;;;;7.38;2.80;;;18.00;98.20;;;;;;6199752;28;20061;-78
2023/06/28 04:24:11;;;;;;;4.93;2.50;;;18.10;98.30;;;;;;6199295;28;20042;-78
2023/06/28 04:27:14;;;;;;;4.00;3.17;;;18.20;98.20;;;;;;6198544;28;20046;-79
2023/06/28 04:30:16;;;;;;;6.35;2.83;;;18.20;98.10;;;;;;6198890;28;20125;-79
2023/06/28 04:33:18;;;;;;;3.45;2.40;;;18.30;98.20;;;;;;6198780;28;20047;-78
2023/06/28 04:36:21;;;;;;;4.43;2.58;;;18.40;98.10;;;;;;6199580;28;20513;-79
2023/06/28 04:39:22;;;;;;;3.13;2.67;;;18.50;98.10;;;;;;6198885;28;20054;-79
2023/06/28 04:42:25;;;;;;;7.63;3.63;;;18.50;98.20;;;;;;6199162;28;20046;-78
2023/06/28 04:45:36;;;;;;;5.38;3.25;;;18.60;98.20;;;;;;6199074;28;20046;-79
2023/06/28 04:48:38;;;;;;;6.15;2.45;;;18.70;98.20;;;;;;6200884;28;20065;-78
2023/06/28 04:51:39;;;;;;;12.23;4.65;;;18.80;97.80;;;;;;6214019;28;20046;-79
2023/06/28 04:54:41;;;;;;;4.70;3.13;;;18.90;97.70;;;;;;6223289;28;20493;-78
2023/06/28 04:57:44;;;;;;;5.85;3.30;;;19.00;97.60;;;;;;6222785;28;20065;-79
2023/06/28 05:00:46;;;;;;;3.38;3.05;;;19.20;97.50;;;;;;6223189;28;20058;-78
2023/06/28 05:03:48;;;;;;;3.63;2.80;;;19.30;97.30;;;;;;6222735;28;20042;-78
2023/06/28 05:06:51;;;;;;;7.47;3.05;;;19.50;97.00;;;;;;6222760;28;20049;-79
2023/06/28 05:09:54;;;;;;;3.15;2.42;;;19.60;96.60;;;;;;6221753;28;20152;-78
2023/06/28 05:12:57;;;;;;;3.70;3.10;;;19.60;96.30;;;;;;6223617;28;20056;-77
2023/06/28 05:15:58;;;;;;;5.20;2.53;;;19.60;96.20;;;;;;6223070;28;20042;-78
2023/06/28 05:19:00;;;;;;;6.93;3.10;;;19.80;96.10;;;;;;6222797;28;20057;-79
2023/06/28 05:22:02;;;;;;;3.40;3.08;;;19.80;96.00;;;;;;6222736;28;20050;-77
2023/06/28 05:25:04;;;;;;;4.88;3.03;;;19.90;95.80;;;;;;6223747;28;20143;-78
2023/06/28 05:28:08;;;;;;;5.75;2.80;;;20.10;95.60;;;;;;6221522;28;20068;-77
2023/06/28 05:31:09;;;;;;;4.45;2.33;;;20.20;95.60;;;;;;6222893;28;20053;-80
2023/06/28 05:34:12;;;;;;;4.75;2.80;;;20.20;95.40;;;;;;6223745;28;20049;-79
2023/06/28 05:37:13;;;;;;;6.00;2.97;;;20.20;95.10;;;;;;6223759;28;20050;-80
2023/06/28 05:40:15;;;;;;;8.50;2.97;;;20.10;95.00;;;;;;6204503;28;20073;-79
2023/06/28 05:43:20;;;;;;;8.30;2.83;;;20.10;95.10;;;;;;6225725;28;20501;-78
2023/06/28 05:46:22;;;;;;;9.82;2.85;;;20.00;95.10;;;;;;6232495;28;20041;-78
2023/06/28 05:49:24;;;;;;;10.25;3.20;;;19.90;95.00;;;;;;6248916;28;20049;-79
2023/06/28 05:52:26;;;;;;;6.70;3.20;;;19.90;95.00;;;;;;6213432;28;20057;-80
2023/06/28 05:55:27;;;;;;;5.00;2.35;;;19.90;94.80;;;;;;6212149;28;20056;-79
2023/06/28 05:58:30;;;;;;;8.85;2.78;;;19.80;94.70;;;;;;6202218;28;20051;-80
2023/06/28 06:01:32;;;;;;;3.35;2.30;;;19.80;94.60;;;;;;6186759;28;20073;-80
2023/06/28 06:04:34;;;;;;;5.80;2.25;;;19.90;94.50;;;;;;6186575;28;20053;-80
2023/06/28 06:07:39;;;;;;;6.15;3.08;;;20.00;94.10;;;;;;6207188;28;20061;-81
2023/06/28 06:10:41;;;;;;;3.25;1.80;;;20.10;93.70;;;;;;6203751;28;20077;-80
2023/06/28 06:13:44;;;;;;;10.85;3.35;;;20.10;93.10;;;;;;6192575;28;20038;-80
2023/06/28 06:16:45;;;;;;;3.72;2.42;;;20.20;92.80;;;;;;6193627;28;20046;-79
2023/06/28 06:19:47;;;;;;;7.63;2.70;;;20.40;92.60;;;;;;6213460;28;20090;-80
2023/06/28 06:22:50;;;;;;;10.50;2.60;;;20.50;92.40;;;;;;6217406;28;20537;-81
2023/06/28 06:25:53;;;;;;;8.00;3.47;;;20.60;92.00;;;;;;6217415;28;20053;-79
2023/06/28 06:28:56;;;;;;;8.18;2.70;;;20.70;91.60;;;;;;6218076;28;20080;-80
2023/06/28 06:31:58;;;;;;;6.82;2.85;;;20.70;91.50;;;;;;6212300;28;22788;-81
2023/06/28 06:35:00;;;;;;;6.18;2.42;;;20.80;91.40;;;;;;6216873;28;20053;-80
2023/06/28 06:38:02;;;;;;;7.30;2.75;;;20.80;91.20;;;;;;6214650;28;20086;-80
2023/06/28 06:41:04;;;;;;;4.70;2.80;;;20.80;91.00;;;;;;6217334;28;20057;-79
2023/06/28 06:44:07;;;;;;;3.33;2.83;;;20.70;91.10;;;;;;6216331;28;20131;-79
2023/06/28 06:47:09;;;;;;;8.02;3.47;;;20.80;91.00;;;;;;6215971;28;20041;-81
2023/06/28 06:50:11;;;;;;;6.25;3.00;;;20.90;90.90;;;;;;6215565;28;20039;-80
2023/06/28 06:53:13;;;;;;;7.47;2.83;;;21.00;90.60;;;;;;6215621;28;20058;-80
2023/06/28 06:56:20;;;;;;;4.43;2.38;;;21.10;90.30;;;;;;6216884;28;20057;-79
2023/06/28 06:59:24;;;;;;;;;;;21.20;89.60;;;;;;6218422;28;20058;-82
2023/06/28 07:02:25;;;;;;;9.13;2.63;;;21.30;89.40;;;;;;6219968;28;19980;-80
2023/06/28 07:05:27;;;;;;;6.35;2.28;;;21.50;88.40;;;;;;6219134;28;20054;-82
2023/06/28 07:08:29;;;;;;;4.70;3.50;;;21.60;87.10;;;;;;6220206;28;20050;-82
2023/06/28 07:11:31;;;;;;;6.00;2.60;;;21.70;85.60;;;;;;6219123;28;20134;-81
2023/06/28 07:14:34;;;;;;;3.42;2.53;;;21.70;84.60;;;;;;6219040;28;20053;-81
2023/06/28 07:17:36;;;;;;;3.47;2.75;;;21.90;83.60;;;;;;6218682;28;20053;-81
2023/06/28 07:20:38;;;;;;;3.72;2.90;;;22.10;82.40;;;;;;6219890;28;20391;-80
2023/06/28 07:23:39;;;;;;;5.57;2.67;;;22.10;80.70;;;;;;6217681;28;20053;-82
2023/06/28 07:26:41;;;;;;;4.07;2.75;;;22.10;79.40;;;;;;6218535;28;20057;-82
2023/06/28 07:29:44;;;;;;;7.32;3.38;;;22.10;78.50;;;;;;6219862;28;20512;-81
2023/06/28 07:32:46;;;;;;;6.97;3.35;;;22.20;77.80;;;;;;6217907;28;20597;-81
2023/06/28 07:35:47;;;;;;;5.90;2.90;;;22.40;77.10;;;;;;6217773;28;20048;-81
2023/06/28 07:38:50;;;;;;;8.93;2.40;;;22.70;77.30;;;;;;6217240;28;20686;-79
2023/06/28 07:41:51;;;;;;;5.53;2.42;;;23.60;75.60;;;;;;6219743;28;20042;-81
2023/06/28 07:44:54;;;;;;;7.15;2.95;;;24.30;73.50;;;;;;6215274;28;20038;-81
2023/06/28 07:47:57;;;;;;;7.28;2.65;;;25.00;70.60;;;;;;6214973;28;20053;-81
2023/06/28 07:50:59;;;;;;;6.57;2.15;;;25.30;67.80;;;;;;6215078;28;20054;-81
2023/06/28 07:54:01;;;;;;;6.93;2.00;;;25.50;65.40;;;;;;6214506;28;20045;-82
2023/06/28 07:57:03;;;;;;;3.30;1.95;;;25.90;63.50;;;;;;6218241;28;20050;-82
2023/06/28 08:00:09;;;;;;;6.82;2.17;;;26.20;62.80;;;;;;6216843;28;20133;-81
2023/06/28 08:03:11;;;;;;;5.93;3.17;;;26.80;61.80;;;;;;6216848;28;20129;-82
2023/06/28 08:06:12;;;;;;;5.95;2.03;;;27.60;60.30;;;;;;6217070;28;20060;-80
2023/06/28 08:09:14;;;;;;;7.03;2.53;;;28.30;58.70;;;;;;6211051;28;20585;-80
2023/06/28 08:12:16;;;;;;;3.25;1.95;;;28.60;56.70;;;;;;6210435;28;20046;-79
2023/06/28 08:15:19;;;;;;;6.25;2.28;;;29.00;55.30;;;;;;6211211;28;20413;-78
2023/06/28 08:18:21;;;;;;;7.20;2.35;;;29.30;54.10;;;;;;6212238;28;21435;-81
2023/06/28 08:21:22;;;;;;;9.02;2.38;;;29.50;52.90;;;;;;6213555;28;20099;-80
2023/06/28 08:24:24;;;;;;;2.53;1.80;;;29.40;52.40;;;;;;6211408;28;20049;-81
2023/06/28 08:27:26;;;;;;;7.47;2.35;;;29.40;51.90;;;;;;6210141;28;20053;-82
2023/06/28 08:30:29;;;;;;;4.82;2.28;;;29.90;51.70;;;;;;6209886;28;20501;-80
2023/06/28 08:33:30;;;;;;;6.57;1.52;;;30.70;50.90;;;;;;6211438;28;20420;-82
2023/06/28 08:36:32;;;;;;;9.20;2.70;;;31.40;49.40;;;;;;6212009;28;20520;-80
2023/06/28 08:39:36;;;;;;;5.63;1.73;;;32.10;48.00;;;;;;6210749;28;20506;-81
2023/06/28 08:42:40;;;;;;;5.45;2.30;;;32.30;46.70;;;;;;6210843;28;20050;-81
2023/06/28 08:45:45;;;;;;;6.15;2.03;;;32.10;45.60;;;;;;6211536;28;20058;-80
2023/06/28 08:48:47;;;;;;;5.13;2.30;;;32.10;45.30;;;;;;6213358;28;20057;-80
2023/06/28 08:51:49;;;;;;;3.30;1.83;;;32.10;44.60;;;;;;6214614;28;20393;-81
2023/06/28 08:54:52;;;;;;;5.28;1.85;;;32.00;44.60;;;;;;6213066;28;20069;-80
2023/06/28 08:57:54;;;;;;;9.00;2.28;;;32.00;44.30;;;;;;6211790;28;20049;-82
2023/06/28 09:00:59;;;;;;;3.40;1.83;;;32.10;44.40;;;;;;6214682;28;20050;-81
2023/06/28 09:04:02;;;;;;;4.03;1.83;;;32.60;44.00;;;;;;6212925;28;20052;-80
2023/06/28 09:07:06;;;;;;;4.07;2.00;;;32.90;43.40;;;;;;6211319;28;20049;-79
2023/06/28 09:10:09;;;;;;;6.63;2.50;;;33.30;42.90;;;;;;6207751;28;20151;-80
2023/06/28 09:13:11;;;;;;;7.03;3.03;;;33.70;42.40;;;;;;6210537;28;20056;-79
2023/06/28 09:16:14;;;;;;;5.85;1.58;;;33.60;41.60;;;;;;6209778;28;20413;-79
2023/06/28 09:19:16;;;;;;;8.93;2.08;;;33.10;41.50;;;;;;6207867;28;20049;-79
2023/06/28 09:22:18;;;;;;;11.05;2.78;;;32.70;42.10;;;;;;6207365;28;20064;-80
2023/06/28 09:25:20;;;;;;;7.53;2.42;;;32.60;42.30;;;;;;6207944;28;20398;-80
2023/06/28 09:28:24;;;;;;;4.70;1.73;;;32.10;42.20;;;;;;6206555;28;20061;-75
2023/06/28 09:31:31;;;;;;;3.58;1.60;;;31.60;42.50;;;;;;6206978;28;20536;-74
2023/06/28 09:34:32;;;;;;;7.97;2.70;;;31.10;43.40;;;;;;6206197;28;20054;-75
2023/06/28 09:37:34;;;;;;;8.15;2.58;;;30.40;43.50;;;;;;6206254;28;20060;-75
2023/06/28 09:40:36;;;;;;;6.72;2.05;;;29.70;44.10;;;;;;6205092;28;20057;-75
2023/06/28 09:43:38;;;;;;;5.28;2.60;;;29.30;44.70;;;;;;6208800;28;20082;-77
2023/06/28 09:46:46;;;;;;;4.80;2.13;;;29.10;45.20;;;;;;6211781;28;20038;-77
2023/06/28 09:49:57;;;;;;;4.45;1.77;;;29.00;45.40;;;;;;6216597;28;20045;-76
2023/06/28 09:52:58;;;;;;;7.78;3.42;;;29.00;45.40;;;;;;6218647;28;20517;-77
2023/06/28 09:56:01;;;;;;;3.75;2.42;;;28.90;46.00;;;;;;6212020;28;20472;-77
2023/06/28 09:59:06;;;;;;;6.30;2.53;;;29.10;46.00;;;;;;6210347;28;20464;-76
2023/06/28 10:02:10;;;;;;;13.88;3.20;;;28.80;45.90;;;;;;6211882;28;20054;-75
2023/06/28 10:05:12;;;;;;;4.60;2.30;;;28.50;46.40;;;;;;6213184;28;20054;-78
2023/06/28 10:08:15;;;;;;;5.18;2.63;;;28.70;46.60;;;;;;6206603;28;20046;-77
2023/06/28 10:11:17;;;;;;;4.32;2.03;;;29.20;46.70;;;;;;6214305;28;20508;-75
2023/06/28 10:14:20;;;;;;;4.20;1.70;;;29.50;45.80;;;;;;6209387;28;20515;-76
2023/06/28 10:17:24;;;;;;;7.25;2.03;;;29.10;45.40;;;;;;6209929;28;20053;-78
2023/06/28 10:20:26;;;;;;;6.55;2.35;;;28.70;46.00;;;;;;6209054;28;20058;-77
2023/06/28 10:23:29;;;;;;;3.08;2.03;;;28.90;46.50;;;;;;6208197;28;20042;-76
2023/06/28 10:26:32;;;;;;;8.40;3.40;;;29.30;46.40;;;;;;6207586;28;20038;-77
2023/06/28 10:29:34;;;;;;;5.18;1.85;;;29.70;46.10;;;;;;6207455;28;23087;-77
2023/06/28 10:32:38;;;;;;;5.05;1.83;;;30.00;45.50;;;;;;6209532;28;20517;-77
2023/06/28 10:35:41;;;;;;;5.30;1.98;;;29.90;44.90;;;;;;6208537;28;20042;-78
2023/06/28 10:38:43;;;;;;;5.18;2.72;;;30.00;45.20;;;;;;6207334;28;20054;-77
2023/06/28 10:41:45;;;;;;;3.38;1.65;;;30.50;45.10;;;;;;6207803;28;20236;-78
2023/06/28 10:44:55;;;;;;;6.22;1.70;;;30.90;44.80;;;;;;6209955;28;20042;-78
2023/06/28 10:47:58;;;;;;;4.60;2.60;;;31.10;44.00;;;;;;6208924;28;20049;-77
2023/06/28 10:51:01;;;;;;;5.75;1.92;;;31.40;43.40;;;;;;6210698;28;20050;-78
2023/06/28 10:54:08;;;;;;;4.53;2.38;;;31.40;42.90;;;;;;6207711;28;20476;-77
2023/06/28 10:57:11;;;;;;;2.30;1.70;;;31.20;43.20;;;;;;6212612;28;20042;-77
2023/06/28 11:00:45;;;;;;;3.53;1.80;;;31.20;43.30;;;;;;6208443;28;20050;-77
2023/06/28 11:03:51;;;;;;;3.45;2.35;;;31.20;42.70;;;;;;6210179;28;20049;-77
2023/06/28 11:07:15;;;;;;;4.30;1.90;;;31.00;42.80;;;;;;6210652;28;20050;-77
2023/06/28 11:10:17;;;;;;;6.05;2.92;;;30.90;42.50;;;;;;6211379;28;20100;-76
2023/06/28 11:13:32;;;;;;;6.55;2.45;;;30.80;42.40;;;;;;6208765;28;20061;-76
2023/06/28 11:16:36;;;;;;;6.00;2.17;;;30.30;42.50;;;;;;6210163;28;20039;-77
2023/06/28 11:19:41;;;;;;;4.88;2.30;;;29.90;43.50;;;;;;6209370;28;20061;-78
2023/06/28 11:22:50;;;;;;;3.90;2.35;;;30.00;43.80;;;;;;6210161;28;20050;-76
2023/06/28 11:26:01;;;;;;;8.38;2.70;;;30.20;43.90;;;;;;6210849;28;20056;-78
2023/06/28 11:29:15;;;;;;;5.60;2.30;;;30.60;44.00;;;;;;6215589;28;20411;-78
2023/06/28 11:32:23;;;;;;;3.80;2.63;;;30.80;43.80;;;;;;6214618;28;20057;-78
2023/06/28 11:35:26;;;;;;;3.13;2.10;;;30.80;44.10;;;;;;6214631;28;20045;-79
2023/06/28 11:38:29;;;;;;;6.43;2.50;;;30.80;44.20;;;;;;6211234;28;20058;-78
2023/06/28 11:41:34;;;;;;;3.60;2.35;;;30.80;44.40;;;;;;6210061;28;20049;-78
2023/06/28 11:44:44;;;;;;;6.53;2.00;;;30.70;44.30;;;;;;6215355;28;20057;-78
2023/06/28 11:47:45;;;;;;;5.57;2.92;;;30.70;44.20;;;;;;6216593;28;20058;-79
2023/06/28 11:50:56;;;;;;;3.25;2.13;;;30.60;44.40;;;;;;6216726;28;20046;-79
2023/06/28 11:53:58;;;;;;;3.63;2.55;;;30.70;44.40;;;;;;6208606;28;20165;-78
2023/06/28 11:57:01;;;;;;;3.85;1.80;;;31.00;44.20;;;;;;6210610;28;20042;-78
2023/06/28 12:00:04;;;;;;;9.10;2.67;;;31.30;44.10;;;;;;6206465;28;20046;-78
2023/06/28 12:03:05;;;;;;;6.20;2.72;;;31.40;43.80;;;;;;6211687;28;20053;-76
2023/06/28 12:06:11;;;;;;;5.40;3.58;;;31.50;43.70;;;;;;6212290;28;20061;-78
2023/06/28 12:09:19;;;;;;;5.40;2.33;;;31.40;44.00;;;;;;6206249;28;20417;-78
2023/06/28 12:12:21;;;;;;;7.05;2.13;;;31.70;43.80;;;;;;6208154;28;20508;-78
2023/06/28 12:15:23;;;;;;;4.38;2.20;;;32.10;43.40;;;;;;6204900;28;20050;-77
2023/06/28 12:18:54;;;;;;;5.03;2.40;;;32.10;43.40;;;;;;6204424;28;20061;-79
2023/06/28 12:22:02;;;;;;;3.85;1.23;;;32.50;42.90;;;;;;6206727;28;20045;-77
2023/06/28 12:25:04;;;;;;;3.45;1.95;;;32.30;42.60;;;;;;6205127;28;20520;-78
2023/06/28 12:28:08;;;;;;;4.97;2.13;;;32.10;42.90;;;;;;6205394;28;20042;-76
2023/06/28 12:31:10;;;;;;;6.65;3.00;;;32.20;42.80;;;;;;6204851;28;20049;-77
2023/06/28 12:34:12;;;;;;;3.80;2.42;;;32.20;42.50;;;;;;6202713;28;20057;-77
2023/06/28 12:37:15;;;;;;;3.63;2.20;;;32.00;42.80;;;;;;6204999;28;20046;-77
2023/06/28 12:40:19;;;;;;;4.88;1.73;;;31.60;42.70;;;;;;6204280;28;20457;-76
2023/06/28 12:43:25;;;;;;;4.20;1.63;;;31.50;42.90;;;;;;6203377;28;20058;-77
2023/06/28 12:46:28;;;;;;;3.73;2.17;;;31.60;42.90;;;;;;6207514;28;20145;-77
2023/06/28 12:49:37;;;;;;;5.03;2.40;;;31.60;42.80;;;;;;6205554;28;20333;-78
2023/06/28 12:52:40;;;;;;;4.55;2.13;;;31.60;43.00;;;;;;6202378;28;20053;-77
2023/06/28 12:55:42;;;;;;;3.47;2.25;;;31.70;42.90;;;;;;6203129;28;20046;-77
2023/06/28 12:58:44;;;;;;;3.20;2.05;;;31.80;43.00;;;;;;6203495;28;20049;-77
2023/06/28 13:01:45;;;;;;;3.45;2.13;;;31.70;43.10;;;;;;6204558;28;20045;-77
2023/06/28 13:04:47;;;;;;;4.03;1.95;;;31.80;43.10;;;;;;6204870;28;20050;-77
2023/06/28 13:07:50;;;;;;;6.90;2.33;;;32.20;42.70;;;;;;6200282;28;20049;-77
2023/06/28 13:10:55;;;;;;;3.42;1.10;;;32.50;42.00;;;;;;6214296;28;20045;-77
2023/06/28 13:13:58;;;;;;;3.97;1.95;;;32.60;41.60;;;;;;6217171;28;20053;-76
2023/06/28 13:17:03;;;;;;;3.42;2.00;;;32.50;41.90;;;;;;6211879;28;20042;-76
2023/06/28 13:20:10;;;;;;;6.38;2.10;;;32.30;41.70;;;;;;6207801;28;20050;-77
2023/06/28 13:23:13;;;;;;;3.35;1.80;;;32.30;41.80;;;;;;6205635;28;20053;-76
2023/06/28 13:26:16;;;;;;;6.13;2.15;;;32.20;42.20;;;;;;6206567;28;20093;-75
2023/06/28 13:29:18;;;;;;;2.13;1.55;;;32.40;42.20;;;;;;6208645;28;20065;-76
2023/06/28 13:32:21;;;;;;;4.38;1.85;;;32.50;42.10;;;;;;6209178;28;20057;-76
2023/06/28 13:35:24;;;;;;;4.60;2.00;;;32.30;42.20;;;;;;6209434;28;20081;-76
2023/06/28 13:46:17;;;;;;;3.03;2.00;;;32.40;42.50;;;;;;6195970;28;20121;-77
2023/06/28 13:49:19;;;;;;;6.50;2.13;;;32.40;41.90;;;;;;6204226;28;20057;-77
2023/06/28 13:52:21;;;;;;;5.03;1.77;;;32.20;41.80;;;;;;6204283;28;20528;-77
2023/06/28 13:55:23;;;;;;;2.78;1.80;;;32.00;42.30;;;;;;6203917;28;20053;-77
2023/06/28 13:58:27;;;;;;;3.42;2.28;;;31.80;42.30;;;;;;6205703;28;20497;-78
2023/06/28 14:01:29;;;;;;;2.30;1.35;;;31.50;42.60;;;;;;6204022;28;20057;-77
2023/06/28 14:04:31;;;;;;;3.67;1.63;;;31.40;42.90;;;;;;6202535;28;20050;-77
2023/06/28 14:07:33;;;;;;;4.57;2.30;;;31.20;43.00;;;;;;6205385;28;21402;-77
2023/06/28 14:10:34;;;;;;;3.38;2.25;;;31.00;43.30;;;;;;6202126;28;20058;-76
2023/06/28 14:13:38;;;;;;;4.90;1.95;;;30.80;43.40;;;;;;6206137;28;20566;-77
2023/06/28 14:16:40;;;;;;;2.78;2.00;;;30.60;43.70;;;;;;6204826;28;20061;-77
2023/06/28 14:19:43;;;;;;;5.55;1.77;;;30.70;43.90;;;;;;6207338;28;20061;-77
2023/06/28 14:22:47;;;;;;;2.70;1.60;;;30.70;43.80;;;;;;6205688;28;20061;-76
2023/06/28 14:25:49;;;;;;;2.63;1.55;;;30.70;44.10;;;;;;6202720;28;20050;-76
2023/06/28 14:28:52;;;;;;;4.40;2.70;;;30.90;44.00;;;;;;6203119;28;20061;-77
2023/06/28 14:31:54;;;;;;;3.40;1.60;;;31.10;43.70;;;;;;6205250;28;20054;-77
2023/06/28 14:34:55;;;;;;;5.25;2.28;;;31.40;43.60;;;;;;6210008;28;20054;-77
2023/06/28 14:38:02;;;;;;;6.55;2.75;;;31.70;43.20;;;;;;6207873;28;20072;-77
2023/06/28 14:41:04;;;;;;;5.53;1.67;;;31.80;43.20;;;;;;6209245;28;20397;-75
2023/06/28 14:44:07;;;;;;;3.97;1.42;;;32.00;43.00;;;;;;6207606;28;20176;-77
2023/06/28 14:47:09;;;;;;;3.30;1.40;;;32.50;42.70;;;;;;6207245;28;20046;-78
2023/06/28 14:50:12;;;;;;;4.35;2.17;;;32.80;41.80;;;;;;6206354;28;20049;-77
2023/06/28 14:53:14;;;;;;;3.10;1.77;;;32.70;41.70;;;;;;6210382;28;20089;-77
2023/06/28 14:56:15;;;;;;;3.83;1.95;;;32.80;41.60;;;;;;6207840;28;20053;-76
2023/06/28 14:59:18;;;;;;;3.22;1.58;;;33.00;41.40;;;;;;6205897;28;20049;-78
2023/06/28 15:02:20;;;;;;;3.72;1.88;;;33.10;41.20;;;;;;6208949;28;20551;-79
2023/06/28 15:05:22;;;;;;;2.65;1.67;;;33.30;41.30;;;;;;6209565;28;21411;-77
2023/06/28 15:08:23;;;;;;;6.80;1.50;;;33.50;41.00;;;;;;6207400;28;20064;-77
2023/06/28 15:11:25;;;;;;;3.30;1.80;;;33.50;40.90;;;;;;6208848;28;20057;-77
2023/06/28 15:14:28;;;;;;;3.38;2.05;;;33.50;40.70;;;;;;6209353;28;20062;-77
2023/06/28 15:17:30;;;;;;;3.35;1.70;;;33.70;40.60;;;;;;6207202;28;20057;-77
2023/06/28 15:20:31;;;;;;;6.53;1.58;;;33.60;40.30;;;;;;6207547;28;20086;-77
2023/06/28 15:23:33;;;;;;;3.35;1.80;;;33.60;40.30;;;;;;6209326;28;20049;-77
2023/06/28 15:26:36;;;;;;;1.98;1.42;;;33.30;40.20;;;;;;6207413;28;20501;-77
2023/06/28 15:29:39;;;;;;;2.67;1.40;;;33.00;40.40;;;;;;6207888;28;20188;-77
2023/06/28 15:32:40;;;;;;;2.35;1.83;;;32.80;40.70;;;;;;6208973;28;20054;-77
2023/06/28 15:35:42;;;;;;;6.72;2.92;;;32.70;40.80;;;;;;6206009;28;20046;-77
2023/06/28 15:38:44;;;;;;;6.10;1.63;;;32.60;40.60;;;;;;6205430;28;20045;-77
2023/06/28 15:41:45;;;;;;;3.00;1.67;;;32.50;40.70;;;;;;6207102;28;20053;-76
2023/06/28 15:44:48;;;;;;;2.40;1.80;;;32.40;41.00;;;;;;6208102;28;20062;-77
2023/06/28 15:47:50;;;;;;;1.90;1.75;;;32.30;41.10;;;;;;6206006;28;20037;-76
2023/06/28 15:50:52;;;;;;;2.60;1.77;;;32.00;41.00;;;;;;6204986;28;20401;-77
2023/06/28 15:53:54;;;;;;;5.63;1.65;;;31.50;41.50;;;;;;6206183;28;20056;-77
2023/06/28 15:56:56;;;;;;;4.63;1.63;;;31.10;41.90;;;;;;6208302;28;20108;-76
2023/06/28 15:59:59;;;;;;;3.22;1.90;;;30.90;42.40;;;;;;6210192;28;20394;-77
2023/06/28 16:03:01;;;;;;;4.82;1.90;;;30.80;42.80;;;;;;6207961;28;20053;-77